sensor_id;sensor_type;location;lat;lon;timestamp;pressure;altitude;pressure_sealevel;temperature;humidity
29315;BME280;16320;53.954;9.506;2022-09-09T00:02:30;100770.44;;;14.78;100.00
29315;BME280;16320;53.954;9.506;2022-09-09T00:06:09;100759.13;;;14.76;100.00
29315;BME280;16320;53.954;9.506;2022-09-09T00:09:22;100761.06;;;14.74;100.00
29315;BME280;16320;53.954;9.506;2022-09-09T00:12:43;100760.31;;;14.72;100.00
29315;BME280;16320;53.954;9.506;2022-09-09T00:16:21;100758.63;;;14.71;100.00
29315;BME280;16320;53.954;9.506;2022-09-09T00:19:50;100758.41;;;14.74;100.00
29315;BME280;16320;53.954;9.506;2022-09-09T00:23:32;100762.75;;;14.75;100.00
29315;BME280;16320;53.954;9.506;2022-09-09T00:26:45;100760.31;;;14.72;100.00
29315;BME280;16320;53.954;9.506;2022-09-09T00:30:20;100753.31;;;14.71;100.00
29315;BME280;16320;53.954;9.506;2022-09-09T00:33:24;100760.94;;;14.76;100.00
29315;BME280;16320;53.954;9.506;2022-09-09T00:36:31;100763.59;;;14.76;100.00
29315;BME280;16320;53.954;9.506;2022-09-09T00:39:42;100758.19;;;14.77;100.00
29315;BME280;16320;53.954;9.506;2022-09-09T00:43:31;100758.41;;;14.74;100.00
29315;BME280;16320;53.954;9.506;2022-09-09T00:54:15;100747.72;;;14.63;100.00
29315;BME280;16320;53.954;9.506;2022-09-09T00:57:30;100753.94;;;14.62;100.00
29315;BME280;16320;53.954;9.506;2022-09-09T01:03:59;100746.53;;;14.54;100.00
29315;BME280;16320;53.954;9.506;2022-09-09T01:07:17;100741.75;;;14.46;100.00
29315;BME280;16320;53.954;9.506;2022-09-09T01:10:54;100749.06;;;14.43;100.00
29315;BME280;16320;53.954;9.506;2022-09-09T01:14:38;100741.44;;;14.38;100.00
29315;BME280;16320;53.954;9.506;2022-09-09T01:18:11;100743.09;;;14.39;100.00
29315;BME280;16320;53.954;9.506;2022-09-09T01:28:26;100735.50;;;14.35;100.00
29315;BME280;16320;53.954;9.506;2022-09-09T01:31:40;100736.56;;;14.32;100.00
29315;BME280;16320;53.954;9.506;2022-09-09T01:34:47;100734.84;;;14.31;100.00
29315;BME280;16320;53.954;9.506;2022-09-09T01:37:52;100734.75;;;14.33;100.00
29315;BME280;16320;53.954;9.506;2022-09-09T01:40:57;100738.47;;;14.30;100.00
29315;BME280;16320;53.954;9.506;2022-09-09T01:44:03;100738.47;;;14.30;100.00
29315;BME280;16320;53.954;9.506;2022-09-09T01:47:09;100741.84;;;14.32;100.00
29315;BME280;16320;53.954;9.506;2022-09-09T01:50:16;100740.34;;;14.28;100.00
29315;BME280;16320;53.954;9.506;2022-09-09T01:53:22;100739.50;;;14.27;100.00
29315;BME280;16320;53.954;9.506;2022-09-09T01:57:11;100733.59;;;14.24;100.00
29315;BME280;16320;53.954;9.506;2022-09-09T02:00:19;100740.00;;;14.20;100.00
29315;BME280;16320;53.954;9.506;2022-09-09T02:03:27;100734.63;;;14.21;100.00
29315;BME280;16320;53.954;9.506;2022-09-09T02:06:38;100735.50;;;14.22;100.00
29315;BME280;16320;53.954;9.506;2022-09-09T02:09:50;100733.97;;;14.18;100.00
29315;BME280;16320;53.954;9.506;2022-09-09T02:13:14;100731.25;;;14.19;100.00
29315;BME280;16320;53.954;9.506;2022-09-09T02:17:03;100735.69;;;14.19;100.00
29315;BME280;16320;53.954;9.506;2022-09-09T02:20:13;100732.94;;;14.20;100.00
29315;BME280;16320;53.954;9.506;2022-09-09T02:23:19;100737.38;;;14.20;100.00
29315;BME280;16320;53.954;9.506;2022-09-09T02:26:25;100731.88;;;14.23;100.00
29315;BME280;16320;53.954;9.506;2022-09-09T02:29:36;100740.09;;;14.18;100.00
29315;BME280;16320;53.954;9.506;2022-09-09T02:32:43;100736.03;;;14.27;100.00
29315;BME280;16320;53.954;9.506;2022-09-09T02:35:51;100736.75;;;14.29;100.00
29315;BME280;16320;53.954;9.506;2022-09-09T02:38:56;100739.41;;;14.29;100.00
29315;BME280;16320;53.954;9.506;2022-09-09T02:42:01;100745.22;;;14.34;100.00
29315;BME280;16320;53.954;9.506;2022-09-09T02:45:10;100734.44;;;14.37;100.00
29315;BME280;16320;53.954;9.506;2022-09-09T02:52:02;100741.63;;;14.35;100.00
29315;BME280;16320;53.954;9.506;2022-09-09T02:55:38;100739.72;;;14.37;100.00
29315;BME280;16320;53.954;9.506;2022-09-09T02:58:43;100734.44;;;14.37;100.00
29315;BME280;16320;53.954;9.506;2022-09-09T03:01:48;100733.72;;;14.35;100.00
29315;BME280;16320;53.954;9.506;2022-09-09T03:04:52;100732.78;;;14.36;100.00
29315;BME280;16320;53.954;9.506;2022-09-09T03:07:57;100734.44;;;14.37;100.00
29315;BME280;16320;53.954;9.506;2022-09-09T03:11:01;100730.13;;;14.36;100.00
29315;BME280;16320;53.954;9.506;2022-09-09T03:14:05;100728.63;;;14.32;100.00
29315;BME280;16320;53.954;9.506;2022-09-09T03:17:10;100730.00;;;14.25;100.00
29315;BME280;16320;53.954;9.506;2022-09-09T03:20:14;100732.97;;;14.33;100.00
29315;BME280;16320;53.954;9.506;2022-09-09T03:23:18;100739.72;;;14.37;100.00
29315;BME280;16320;53.954;9.506;2022-09-09T03:26:23;100738.88;;;14.37;100.00
29315;BME280;16320;53.954;9.506;2022-09-09T03:29:27;100732.06;;;14.20;100.00
29315;BME280;16320;53.954;9.506;2022-09-09T03:32:32;100738.88;;;14.24;100.00
29315;BME280;16320;53.954;9.506;2022-09-09T03:35:36;100747.31;;;14.29;100.00
29315;BME280;16320;53.954;9.506;2022-09-09T03:38:41;100747.31;;;14.29;100.00
29315;BME280;16320;53.954;9.506;2022-09-09T03:41:45;100748.63;;;14.36;100.00
29315;BME280;16320;53.954;9.506;2022-09-09T03:44:52;100742.00;;;14.16;100.00
29315;BME280;16320;53.954;9.506;2022-09-09T03:47:56;100744.56;;;14.18;100.00
29315;BME280;16320;53.954;9.506;2022-09-09T03:51:01;100731.84;;;14.10;100.00
29315;BME280;16320;53.954;9.506;2022-09-09T03:54:07;100750.16;;;14.26;100.00
29315;BME280;16320;53.954;9.506;2022-09-09T03:57:12;100749.03;;;14.30;100.00
29315;BME280;16320;53.954;9.506;2022-09-09T04:00:17;100746.72;;;14.38;100.00
29315;BME280;16320;53.954;9.506;2022-09-09T04:03:23;100744.81;;;14.40;100.00
29315;BME280;16320;53.954;9.506;2022-09-09T04:06:31;100743.88;;;14.41;100.00
29315;BME280;16320;53.954;9.506;2022-09-09T04:09:36;100736.56;;;14.32;100.00
29315;BME280;16320;53.954;9.506;2022-09-09T04:12:40;100736.16;;;14.38;100.00
29315;BME280;16320;53.954;9.506;2022-09-09T04:15:57;100735.72;;;14.32;100.00
29315;BME280;16320;53.954;9.506;2022-09-09T04:19:04;100730.44;;;14.32;100.00
29315;BME280;16320;53.954;9.506;2022-09-09T04:22:09;100741.44;;;14.38;100.00
29315;BME280;16320;53.954;9.506;2022-09-09T04:25:13;100739.94;;;14.34;100.00
29315;BME280;16320;53.954;9.506;2022-09-09T04:28:20;100733.19;;;14.30;100.00
29315;BME280;16320;53.954;9.506;2022-09-09T04:31:25;100735.19;;;14.39;100.00
29315;BME280;16320;53.954;9.506;2022-09-09T04:34:29;100733.50;;;14.38;100.00
29315;BME280;16320;53.954;9.506;2022-09-09T04:37:35;100731.28;;;14.32;100.00
29315;BME280;16320;53.954;9.506;2022-09-09T04:40:43;100737.38;;;14.20;100.00
29315;BME280;16320;53.954;9.506;2022-09-09T04:43:48;100747.41;;;14.15;100.00
29315;BME280;16320;53.954;9.506;2022-09-09T04:46:53;100748.03;;;14.18;100.00
29315;BME280;16320;53.954;9.506;2022-09-09T04:49:57;100752.94;;;14.37;100.00
29315;BME280;16320;53.954;9.506;2022-09-09T04:53:03;100757.09;;;14.41;100.00
29315;BME280;16320;53.954;9.506;2022-09-09T04:56:12;100768.69;;;14.39;100.00
29315;BME280;16320;53.954;9.506;2022-09-09T04:59:17;100759.19;;;14.36;100.00
29315;BME280;16320;53.954;9.506;2022-09-09T05:02:22;100756.56;;;14.36;100.00
29315;BME280;16320;53.954;9.506;2022-09-09T05:05:31;100762.78;;;14.35;100.00
29315;BME280;16320;53.954;9.506;2022-09-09T05:08:40;100751.38;;;14.35;100.00
29315;BME280;16320;53.954;9.506;2022-09-09T05:11:45;100753.03;;;14.36;100.00
29315;BME280;16320;53.954;9.506;2022-09-09T05:14:50;100750.50;;;14.34;100.00
29315;BME280;16320;53.954;9.506;2022-09-09T05:18:00;100755.78;;;14.34;100.00
29315;BME280;16320;53.954;9.506;2022-09-09T05:21:06;100756.75;;;14.33;100.00
29315;BME280;16320;53.954;9.506;2022-09-09T05:24:10;100756.19;;;14.28;100.00
29315;BME280;16320;53.954;9.506;2022-09-09T05:27:15;100750.91;;;14.28;100.00
29315;BME280;16320;53.954;9.506;2022-09-09T05:30:20;100759.78;;;14.27;100.00
29315;BME280;16320;53.954;9.506;2022-09-09T05:33:27;100760.00;;;14.24;100.00
29315;BME280;16320;53.954;9.506;2022-09-09T05:36:31;100757.34;;;14.24;100.00
29315;BME280;16320;53.954;9.506;2022-09-09T05:39:36;100766.31;;;14.21;100.00
29315;BME280;16320;53.954;9.506;2022-09-09T05:42:41;100772.47;;;14.22;100.00
29315;BME280;16320;53.954;9.506;2022-09-09T05:45:58;100768.13;;;14.21;100.00
29315;BME280;16320;53.954;9.506;2022-09-09T05:49:03;100776.88;;;14.21;100.00
29315;BME280;16320;53.954;9.506;2022-09-09T05:52:09;100781.97;;;14.24;100.00
29315;BME280;16320;53.954;9.506;2022-09-09T05:55:14;100783.69;;;14.25;100.00
29315;BME280;16320;53.954;9.506;2022-09-09T05:58:19;100790.75;;;14.25;100.00
29315;BME280;16320;53.954;9.506;2022-09-09T06:01:34;100789.59;;;14.29;100.00
29315;BME280;16320;53.954;9.506;2022-09-09T06:04:39;100785.16;;;14.29;100.00
29315;BME280;16320;53.954;9.506;2022-09-09T06:07:44;100789.59;;;14.29;100.00
29315;BME280;16320;53.954;9.506;2022-09-09T06:10:49;100795.63;;;14.31;100.00
29315;BME280;16320;53.954;9.506;2022-09-09T06:13:53;100790.44;;;14.29;100.00
29315;BME280;16320;53.954;9.506;2022-09-09T06:16:58;100795.22;;;14.37;100.00
29315;BME280;16320;53.954;9.506;2022-09-09T06:20:03;100799.56;;;14.38;100.00
29315;BME280;16320;53.954;9.506;2022-09-09T06:23:07;100802.94;;;14.40;100.00
29315;BME280;16320;53.954;9.506;2022-09-09T06:26:18;100799.25;;;14.43;100.00
29315;BME280;16320;53.954;9.506;2022-09-09T06:29:23;100801.03;;;14.42;100.00
29315;BME280;16320;53.954;9.506;2022-09-09T06:32:28;100812.19;;;14.48;100.00
29315;BME280;16320;53.954;9.506;2022-09-09T06:35:32;100806.31;;;14.42;100.00
29315;BME280;16320;53.954;9.506;2022-09-09T06:38:37;100806.75;;;14.49;100.00
29315;BME280;16320;53.954;9.506;2022-09-09T06:41:42;100810.47;;;14.46;100.00
29315;BME280;16320;53.954;9.506;2022-09-09T06:44:47;100811.72;;;14.54;100.00
29315;BME280;16320;53.954;9.506;2022-09-09T06:47:55;100814.91;;;14.59;100.00
29315;BME280;16320;53.954;9.506;2022-09-09T06:51:05;100815.50;;;14.64;100.00
29315;BME280;16320;53.954;9.506;2022-09-09T06:54:11;100827.75;;;14.65;100.00
29315;BME280;16320;53.954;9.506;2022-09-09T06:57:16;100824.72;;;14.71;100.00
29315;BME280;16320;53.954;9.506;2022-09-09T07:00:40;100821.13;;;14.72;100.00
29315;BME280;16320;53.954;9.506;2022-09-09T07:03:49;100832.22;;;14.77;100.00
29315;BME280;16320;53.954;9.506;2022-09-09T07:06:54;100824.81;;;14.82;100.00
29315;BME280;16320;53.954;9.506;2022-09-09T07:09:58;100819.84;;;14.91;100.00
29315;BME280;16320;53.954;9.506;2022-09-09T07:13:03;100827.91;;;14.89;100.00
29315;BME280;16320;53.954;9.506;2022-09-09T07:16:14;100828.72;;;14.90;100.00
29315;BME280;16320;53.954;9.506;2022-09-09T07:19:19;100832.97;;;14.92;100.00
29315;BME280;16320;53.954;9.506;2022-09-09T07:22:23;100831.16;;;14.93;100.00
29315;BME280;16320;53.954;9.506;2022-09-09T07:25:29;100836.25;;;14.96;100.00
29315;BME280;16320;53.954;9.506;2022-09-09T07:28:34;100837.13;;;14.96;100.00
29315;BME280;16320;53.954;9.506;2022-09-09T07:31:39;100835.41;;;14.95;100.00
29315;BME280;16320;53.954;9.506;2022-09-09T07:34:44;100836.25;;;14.96;100.00
29315;BME280;16320;53.954;9.506;2022-09-09T07:37:48;100841.53;;;14.96;100.00
29315;BME280;16320;53.954;9.506;2022-09-09T07:41:13;100833.59;;;14.96;100.00
29315;BME280;16320;53.954;9.506;2022-09-09T07:44:21;100841.34;;;14.99;100.00
29315;BME280;16320;53.954;9.506;2022-09-09T07:47:26;100840.19;;;15.03;100.00
29315;BME280;16320;53.954;9.506;2022-09-09T07:50:31;100836.16;;;15.10;100.00
29315;BME280;16320;53.954;9.506;2022-09-09T07:53:35;100841.97;;;15.15;100.00
29315;BME280;16320;53.954;9.506;2022-09-09T07:56:41;100846.53;;;15.13;100.00
29315;BME280;16320;53.954;9.506;2022-09-09T07:59:46;100841.97;;;15.15;100.00
29315;BME280;16320;53.954;9.506;2022-09-09T08:02:50;100843.47;;;15.19;100.00
29315;BME280;16320;53.954;9.506;2022-09-09T08:06:02;100841.34;;;15.25;100.00
29315;BME280;16320;53.954;9.506;2022-09-09T08:09:08;100840.06;;;15.30;100.00
29315;BME280;16320;53.954;9.506;2022-09-09T08:12:13;100848.53;;;15.35;100.00
29315;BME280;16320;53.954;9.506;2022-09-09T08:15:18;100847.69;;;15.35;100.00
29315;BME280;16320;53.954;9.506;2022-09-09T08:18:23;100853.19;;;15.32;100.00
29315;BME280;16320;53.954;9.506;2022-09-09T08:21:30;100856.59;;;15.34;100.00
29315;BME280;16320;53.954;9.506;2022-09-09T08:24:35;100851.31;;;15.34;100.00
29315;BME280;16320;53.954;9.506;2022-09-09T08:27:40;100853.28;;;15.30;100.00
29315;BME280;16320;53.954;9.506;2022-09-09T08:30:44;100856.81;;;15.31;100.00
29315;BME280;16320;53.954;9.506;2022-09-09T08:33:49;100859.97;;;15.36;100.00
29315;BME280;16320;53.954;9.506;2022-09-09T08:36:56;100844.41;;;15.44;100.00
29315;BME280;16320;53.954;9.506;2022-09-09T08:40:01;100860.06;;;15.47;100.00
29315;BME280;16320;53.954;9.506;2022-09-09T08:43:07;100861.22;;;15.43;100.00
29315;BME280;16320;53.954;9.506;2022-09-09T08:46:26;100864.63;;;15.45;100.00
29315;BME280;16320;53.954;9.506;2022-09-09T08:50:02;100857.50;;;15.59;100.00
29315;BME280;16320;53.954;9.506;2022-09-09T08:53:21;100852.50;;;15.67;100.00
29315;BME280;16320;53.954;9.506;2022-09-09T08:56:27;100871.56;;;15.72;100.00
29315;BME280;16320;53.954;9.506;2022-09-09T08:59:35;100870.72;;;15.71;100.00
29315;BME280;16320;53.954;9.506;2022-09-09T09:02:47;100874.75;;;15.77;100.00
29315;BME280;16320;53.954;9.506;2022-09-09T09:12:43;100877.47;;;16.01;100.00
29315;BME280;16320;53.954;9.506;2022-09-09T09:15:59;100880.28;;;16.11;100.00
29315;BME280;16320;53.954;9.506;2022-09-09T09:19:06;100886.31;;;16.13;100.00
29315;BME280;16320;53.954;9.506;2022-09-09T09:25:39;100871.22;;;16.26;100.00
29315;BME280;16320;53.954;9.506;2022-09-09T09:28:45;100870.88;;;16.31;100.00
29315;BME280;16320;53.954;9.506;2022-09-09T09:31:56;100862.34;;;16.39;100.00
29315;BME280;16320;53.954;9.506;2022-09-09T09:35:11;100871.34;;;16.49;100.00
29315;BME280;16320;53.954;9.506;2022-09-09T09:38:24;100867.97;;;16.58;100.00
29315;BME280;16320;53.954;9.506;2022-09-09T09:41:49;100870.75;;;16.57;100.00
29315;BME280;16320;53.954;9.506;2022-09-09T09:44:55;100877.63;;;16.59;100.00
29315;BME280;16320;53.954;9.506;2022-09-09T09:48:05;100867.47;;;16.53;100.00
29315;BME280;16320;53.954;9.506;2022-09-09T09:51:14;100866.81;;;16.62;100.00
29315;BME280;16320;53.954;9.506;2022-09-09T09:54:34;100876.53;;;16.62;100.00
29315;BME280;16320;53.954;9.506;2022-09-09T09:57:41;100871.88;;;16.65;100.00
29315;BME280;16320;53.954;9.506;2022-09-09T10:00:51;100873.44;;;16.68;100.00
29315;BME280;16320;53.954;9.506;2022-09-09T10:04:14;100870.56;;;16.71;100.00
29315;BME280;16320;53.954;9.506;2022-09-09T10:07:22;100872.88;;;16.76;100.00
29315;BME280;16320;53.954;9.506;2022-09-09T10:10:59;100880.59;;;17.03;100.00
29315;BME280;16320;53.954;9.506;2022-09-09T10:14:26;100874.81;;;17.09;100.00
29315;BME280;16320;53.954;9.506;2022-09-09T10:24:39;100856.13;;;17.11;100.00
29315;BME280;16320;53.954;9.506;2022-09-09T10:35:25;100874.09;;;17.41;100.00
29315;BME280;16320;53.954;9.506;2022-09-09T10:38:45;100875.44;;;17.58;100.00
29315;BME280;16320;53.954;9.506;2022-09-09T10:42:09;100880.22;;;17.87;100.00
29315;BME280;16320;53.954;9.506;2022-09-09T10:45:22;100857.69;;;17.92;100.00
29315;BME280;16320;53.954;9.506;2022-09-09T10:48:46;100849.09;;;18.00;100.00
29315;BME280;16320;53.954;9.506;2022-09-09T10:52:16;100840.56;;;18.18;100.00
29315;BME280;16320;53.954;9.506;2022-09-09T10:55:59;100838.13;;;18.26;100.00
29315;BME280;16320;53.954;9.506;2022-09-09T10:59:18;100823.91;;;18.16;100.00
29315;BME280;16320;53.954;9.506;2022-09-09T11:02:29;100827.94;;;18.10;100.00
29315;BME280;16320;53.954;9.506;2022-09-09T11:05:49;100843.25;;;18.06;100.00
29315;BME280;16320;53.954;9.506;2022-09-09T11:08:58;100852.22;;;18.05;100.00
29315;BME280;16320;53.954;9.506;2022-09-09T11:12:06;100829.75;;;17.98;100.00
29315;BME280;16320;53.954;9.506;2022-09-09T11:15:43;100823.84;;;17.95;100.00
29315;BME280;16320;53.954;9.506;2022-09-09T11:18:49;100817.69;;;18.05;100.00
29315;BME280;16320;53.954;9.506;2022-09-09T11:21:55;100818.88;;;18.01;100.00
29315;BME280;16320;53.954;9.506;2022-09-09T11:25:28;100844.72;;;18.10;100.00
29315;BME280;16320;53.954;9.506;2022-09-09T11:40:23;100822.50;;;18.33;100.00
29315;BME280;16320;53.954;9.506;2022-09-09T11:43:33;100800.66;;;18.29;100.00
29315;BME280;16320;53.954;9.506;2022-09-09T11:46:43;100821.69;;;18.32;100.00
29315;BME280;16320;53.954;9.506;2022-09-09T11:49:50;100820.25;;;18.28;100.00
29315;BME280;16320;53.954;9.506;2022-09-09T11:53:18;100815.97;;;18.37;100.00
29315;BME280;16320;53.954;9.506;2022-09-09T11:56:43;100829.84;;;18.40;100.00
29315;BME280;16320;53.954;9.506;2022-09-09T11:59:52;100830.19;;;18.47;100.00
29315;BME280;16320;53.954;9.506;2022-09-09T12:02:56;100819.16;;;18.52;100.00
29315;BME280;16320;53.954;9.506;2022-09-09T12:06:26;100822.25;;;18.36;100.00
29315;BME280;16320;53.954;9.506;2022-09-09T12:13:23;100783.13;;;18.38;100.00
29315;BME280;16320;53.954;9.506;2022-09-09T12:16:36;100814.31;;;18.57;100.00
29315;BME280;16320;53.954;9.506;2022-09-09T12:19:42;100828.97;;;18.72;100.00
29315;BME280;16320;53.954;9.506;2022-09-09T12:26:53;100767.16;;;18.80;100.00
29315;BME280;16320;53.954;9.506;2022-09-09T12:30:10;100729.97;;;18.90;100.00
29315;BME280;16320;53.954;9.506;2022-09-09T12:33:18;100733.06;;;18.95;100.00
29315;BME280;16320;53.954;9.506;2022-09-09T12:36:29;100731.97;;;19.07;100.00
29315;BME280;16320;53.954;9.506;2022-09-09T12:39:44;100749.66;;;19.08;100.00
29315;BME280;16320;53.954;9.506;2022-09-09T12:42:50;100757.03;;;18.95;100.00
29315;BME280;16320;53.954;9.506;2022-09-09T12:46:07;100754.50;;;18.72;100.00
29315;BME280;16320;53.954;9.506;2022-09-09T12:49:36;100764.31;;;18.72;100.00
29315;BME280;16320;53.954;9.506;2022-09-09T12:52:42;100788.53;;;18.90;100.00
29315;BME280;16320;53.954;9.506;2022-09-09T12:55:59;100778.75;;;19.00;100.00
29315;BME280;16320;53.954;9.506;2022-09-09T12:59:05;100737.47;;;18.84;100.00
29315;BME280;16320;53.954;9.506;2022-09-09T13:02:25;100748.25;;;19.14;100.00
29315;BME280;16320;53.954;9.506;2022-09-09T13:05:38;100741.06;;;19.35;100.00
29315;BME280;16320;53.954;9.506;2022-09-09T13:08:45;100730.53;;;19.34;100.00
29315;BME280;16320;53.954;9.506;2022-09-09T13:11:54;100714.88;;;19.50;100.00
29315;BME280;16320;53.954;9.506;2022-09-09T13:15:00;100694.81;;;19.66;100.00
29315;BME280;16320;53.954;9.506;2022-09-09T13:18:11;100696.94;;;19.62;100.00
29315;BME280;16320;53.954;9.506;2022-09-09T13:21:17;100697.06;;;19.51;100.00
29315;BME280;16320;53.954;9.506;2022-09-09T13:24:33;100694.81;;;19.46;100.00
29315;BME280;16320;53.954;9.506;2022-09-09T13:27:41;100711.75;;;19.26;100.00
29315;BME280;16320;53.954;9.506;2022-09-09T13:31:18;100729.78;;;19.12;100.00
29315;BME280;16320;53.954;9.506;2022-09-09T13:34:29;100714.00;;;18.90;100.00
29315;BME280;16320;53.954;9.506;2022-09-09T13:37:38;100746.56;;;19.03;100.00
29315;BME280;16320;53.954;9.506;2022-09-09T13:41:06;100734.78;;;19.06;100.00
29315;BME280;16320;53.954;9.506;2022-09-09T13:44:30;100735.72;;;18.95;100.00
29315;BME280;16320;53.954;9.506;2022-09-09T13:47:36;100753.28;;;19.07;100.00
29315;BME280;16320;53.954;9.506;2022-09-09T13:50:41;100778.75;;;19.00;100.00
29315;BME280;16320;53.954;9.506;2022-09-09T13:53:46;100774.66;;;18.96;100.00
29315;BME280;16320;53.954;9.506;2022-09-09T13:56:50;100776.78;;;19.02;100.00
29315;BME280;16320;53.954;9.506;2022-09-09T13:59:55;100778.22;;;19.06;100.00
29315;BME280;16320;53.954;9.506;2022-09-09T14:03:09;100773.00;;;18.95;100.00
29315;BME280;16320;53.954;9.506;2022-09-09T14:06:14;100786.56;;;18.92;100.00
29315;BME280;16320;53.954;9.506;2022-09-09T14:09:19;100790.44;;;18.88;100.00
29315;BME280;16320;53.954;9.506;2022-09-09T14:12:24;100789.78;;;18.74;100.00
29315;BME280;16320;53.954;9.506;2022-09-09T14:15:28;100819.94;;;18.63;100.00
29315;BME280;16320;53.954;9.506;2022-09-09T14:18:33;100813.59;;;18.55;100.00
29315;BME280;16320;53.954;9.506;2022-09-09T14:21:38;100772.81;;;18.44;100.00
29315;BME280;16320;53.954;9.506;2022-09-09T14:24:42;100786.16;;;18.33;100.00
29315;BME280;16320;53.954;9.506;2022-09-09T14:27:47;100810.28;;;18.09;100.00
29315;BME280;16320;53.954;9.506;2022-09-09T14:30:52;100842.31;;;17.85;100.00
29315;BME280;16320;53.954;9.506;2022-09-09T14:33:57;100855.63;;;17.62;100.00
29315;BME280;16320;53.954;9.506;2022-09-09T14:37:02;100866.03;;;17.43;100.00
29315;BME280;16320;53.954;9.506;2022-09-09T14:40:07;100879.28;;;17.31;100.00
29315;BME280;16320;53.954;9.506;2022-09-09T14:43:11;100890.75;;;17.20;100.00
29315;BME280;16320;53.954;9.506;2022-09-09T14:46:18;100910.88;;;17.12;100.00
29315;BME280;16320;53.954;9.506;2022-09-09T14:49:23;100922.16;;;17.02;100.00
29315;BME280;16320;53.954;9.506;2022-09-09T14:52:29;100926.59;;;16.91;100.00
29315;BME280;16320;53.954;9.506;2022-09-09T14:55:34;100934.69;;;16.89;100.00
29315;BME280;16320;53.954;9.506;2022-09-09T14:58:38;100939.41;;;16.97;100.00
29315;BME280;16320;53.954;9.506;2022-09-09T15:01:43;100939.44;;;16.84;100.00
29315;BME280;16320;53.954;9.506;2022-09-09T15:04:48;100951.31;;;16.91;100.00
29315;BME280;16320;53.954;9.506;2022-09-09T15:07:54;100939.03;;;16.90;100.00
29315;BME280;16320;53.954;9.506;2022-09-09T15:11:00;100921.91;;;16.94;100.00
29315;BME280;16320;53.954;9.506;2022-09-09T15:14:07;100910.00;;;17.00;100.00
29315;BME280;16320;53.954;9.506;2022-09-09T15:17:13;100935.88;;;17.20;100.00
29315;BME280;16320;53.954;9.506;2022-09-09T15:20:17;100936.94;;;17.18;100.00
29315;BME280;16320;53.954;9.506;2022-09-09T15:23:22;100933.06;;;17.11;100.00
29315;BME280;16320;53.954;9.506;2022-09-09T15:26:27;100934.03;;;17.10;100.00
29315;BME280;16320;53.954;9.506;2022-09-09T15:29:31;100924.81;;;17.02;100.00
29315;BME280;16320;53.954;9.506;2022-09-09T15:32:36;100934.50;;;17.04;100.00
29315;BME280;16320;53.954;9.506;2022-09-09T15:35:40;100923.84;;;16.92;100.00
29315;BME280;16320;53.954;9.506;2022-09-09T15:38:44;100933.16;;;16.98;100.00
29315;BME280;16320;53.954;9.506;2022-09-09T15:41:50;100930.88;;;17.05;100.00
29315;BME280;16320;53.954;9.506;2022-09-09T15:44:55;100934.50;;;17.04;100.00
29315;BME280;16320;53.954;9.506;2022-09-09T15:48:02;100922.66;;;16.96;100.00
29315;BME280;16320;53.954;9.506;2022-09-09T15:51:07;100912.50;;;16.90;100.00
29315;BME280;16320;53.954;9.506;2022-09-09T15:54:35;100911.47;;;16.80;100.00
29315;BME280;16320;53.954;9.506;2022-09-09T15:57:42;100903.88;;;16.75;100.00
29315;BME280;16320;53.954;9.506;2022-09-09T16:00:46;100909.50;;;16.71;100.00
29315;BME280;16320;53.954;9.506;2022-09-09T16:03:51;100907.69;;;16.71;100.00
29315;BME280;16320;53.954;9.506;2022-09-09T16:07:03;100905.16;;;16.70;100.00
29315;BME280;16320;53.954;9.506;2022-09-09T16:10:08;100918.41;;;16.70;100.00
29315;BME280;16320;53.954;9.506;2022-09-09T16:13:13;100923.50;;;16.73;100.00
29315;BME280;16320;53.954;9.506;2022-09-09T16:16:21;100932.94;;;16.77;100.00
29315;BME280;16320;53.954;9.506;2022-09-09T16:19:25;100925.31;;;16.72;100.00
29315;BME280;16320;53.954;9.506;2022-09-09T16:22:30;100919.13;;;16.72;100.00
29315;BME280;16320;53.954;9.506;2022-09-09T16:25:34;100920.84;;;16.73;100.00
29315;BME280;16320;53.954;9.506;2022-09-09T16:28:39;100921.69;;;16.73;100.00
29315;BME280;16320;53.954;9.506;2022-09-09T16:31:45;100922.78;;;16.71;100.00
29315;BME280;16320;53.954;9.506;2022-09-09T16:34:50;100928.69;;;16.74;100.00
29315;BME280;16320;53.954;9.506;2022-09-09T16:37:55;100931.44;;;16.73;100.00
29315;BME280;16320;53.954;9.506;2022-09-09T16:41:03;100942.78;;;16.75;100.00
29315;BME280;16320;53.954;9.506;2022-09-09T16:44:11;100940.59;;;16.69;100.00
29315;BME280;16320;53.954;9.506;2022-09-09T16:47:16;100935.97;;;16.59;100.00
29315;BME280;16320;53.954;9.506;2022-09-09T16:50:21;100934.00;;;16.50;100.00
29315;BME280;16320;53.954;9.506;2022-09-09T16:53:25;100936.97;;;16.45;100.00
29315;BME280;16320;53.954;9.506;2022-09-09T16:56:31;100928.41;;;16.42;100.00
29315;BME280;16320;53.954;9.506;2022-09-09T16:59:38;100923.53;;;16.36;100.00
29315;BME280;16320;53.954;9.506;2022-09-09T17:02:43;100922.81;;;16.34;100.00
29315;BME280;16320;53.954;9.506;2022-09-09T17:05:48;100919.78;;;16.27;100.00
29315;BME280;16320;53.954;9.506;2022-09-09T17:08:58;100921.47;;;16.28;100.00
29315;BME280;16320;53.954;9.506;2022-09-09T17:12:03;100929.31;;;16.29;100.00
29315;BME280;16320;53.954;9.506;2022-09-09T17:15:08;100929.75;;;16.23;100.00
29315;BME280;16320;53.954;9.506;2022-09-09T17:18:14;100929.69;;;16.12;100.00
29315;BME280;16320;53.954;9.506;2022-09-09T17:21:23;100925.97;;;16.02;100.00
29315;BME280;16320;53.954;9.506;2022-09-09T17:24:32;100929.59;;;16.01;100.00
29315;BME280;16320;53.954;9.506;2022-09-09T17:27:38;100933.19;;;16.00;100.00